Stations météo

réclame
Mon MeteoGroup
Dravagen, Suède (2317): Température de l'air & dewpoint: 17.02.2018 07:00:00 - 23.02.2018 07:00:00 (CET)Dravagen, Suède (2317): Vitesse du vent & gusts: 17.02.2018 07:00:00 - 23.02.2018 07:00:00 (CET)Dravagen, Suède (2317): Direction du vent: 17.02.2018 07:00:00 - 23.02.2018 07:00:00 (CET)Dravagen, Suède (2317): visibility: 17.02.2018 07:00:00 - 23.02.2018 07:00:00 (CET)Dravagen, Suède (2317): Quantités de précipitations: 17.02.2018 07:00:00 - 23.02.2018 07:00:00 (CET)
Date & Time tt [°C] td [°C] ff [km/h] ff [knt] fx [km/h] fx [knt] dd vv [km] rr [mm]
23.02.2018 07:00:00 -8,0 -9,1 5 3 6 3 WSW 50 0,0
23.02.2018 06:00:00 -5,7 -7,2 3 2 9 5 E 50 0,0
23.02.2018 05:00:00 -7,8 -9,2 6 4 11 6 WNW 50 0,0
23.02.2018 04:00:00 -5,2 -6,7 4 2 10 5 W 50 0,0
23.02.2018 03:00:00 -5,5 -6,9 3 1 6 4 NNW 50 0,0
23.02.2018 02:00:00 -6,9 -7,8 2 1 7 4 NNE 50 0,0
23.02.2018 01:00:00 -8,1 -8,6 3 2 12 6 W 50 0,0
23.02.2018 00:00:00 -5,9 -7,6 7 4 20 11 WSW 50 0,0
22.02.2018 23:00:00 -3,6 -5,6 15 8 27 15 W 50 0,0
22.02.2018 22:00:00 -2,5 -4,5 11 6 19 10 W 50 0,0
22.02.2018 21:00:00 -1,6 -3,8 9 5 23 12 WNW 50 0,0
22.02.2018 20:00:00 -0,9 -3,1 14 8 26 14 NNW 50 0,0
22.02.2018 19:00:00 -0,7 -2,9 11 6 18 10 NW 50 0,0
22.02.2018 18:00:00 -1,5 -3,2 9 5 14 7 WNW 32 0,0
22.02.2018 17:00:00 -2,3 -4,2 4 2 14 8 SW 50 0,0
22.02.2018 16:00:00 -1,8 -4,5 10 5 24 13 W 50 0,0
22.02.2018 15:00:00 -0,3 -3,2 16 9 25 14 W 50 0,0
22.02.2018 14:00:00 0,3 -2,7 17 9 28 15 W 50 0,0
22.02.2018 13:00:00 -0,6 -3,8 10 6 18 10 W 44 0,0
22.02.2018 12:00:00 -1,2 -4,4 8 5 13 7 WNW 50 0,0
22.02.2018 11:00:00 -4,7 -6,1 0 0 5 3 N 48 0,0
22.02.2018 10:00:00 -7,2 -8,6 0 0 6 4 N 46 0,0
22.02.2018 09:00:00 -8,5 -9,4 0 0 5 3 N 50 0,0
22.02.2018 08:00:00 -11,0 -12,3 0 0 4 2 N 42 0,0
22.02.2018 07:00:00 -11,6 -12,8 0 0 6 4 N 50 0,0
22.02.2018 06:00:00 -11,2 -12,2 6 3 7 4 W 50 0,0
22.02.2018 05:00:00 -9,0 -10,1 3 2 5 3 W 41 0,0
22.02.2018 04:00:00 -8,0 -8,9 0 0 3 2 N 46 0,0
22.02.2018 03:00:00 -8,0 -8,8 0 0 3 1 N 30 0,0
22.02.2018 02:00:00 -8,1 -8,8 0 0 3 1 N 7 0,1
22.02.2018 01:00:00 -8,2 -8,9 0 0 3 2 N 3,4 0,1
22.02.2018 00:00:00 -8,3 -9,2 0 0 3 2 N - 0,1
21.02.2018 23:00:00 -8,5 -9,4 0 0 4 2 N 7 0,1
21.02.2018 22:00:00 -8,6 -9,7 0 0 0 0 N 8 0,0
21.02.2018 21:00:00 -9,1 -10,3 0 0 0 0 N 10 0,1
21.02.2018 20:00:00 -8,7 -9,9 0 0 0 0 N 12 0,0
21.02.2018 19:00:00 -9,2 -10,5 0 0 0 0 N 15 0,0
21.02.2018 18:00:00 -8,9 -10,4 0 0 3 2 N 32 0,1
21.02.2018 17:00:00 -8,3 -10,4 0 0 5 3 N 24 0,1
21.02.2018 16:00:00 -7,9 -10,0 3 1 12 7 S 14 0,2
21.02.2018 15:00:00 -7,8 -9,7 4 2 11 6 SW 1,6 0,3
21.02.2018 14:00:00 -7,6 -9,7 4 2 8 4 SSE 2,0 0,2
21.02.2018 13:00:00 -7,9 -9,5 4 2 9 5 ESE 1,5 0,1
21.02.2018 12:00:00 -8,6 -10,4 5 3 11 6 E 3,3 0,0
21.02.2018 11:00:00 -9,3 -11,1 7 4 10 5 E 7 0,0
21.02.2018 10:00:00 -9,6 -11,2 3 2 7 4 ESE 13 0,0
21.02.2018 09:00:00 -10,0 -11,6 0 0 6 3 N 16 0,0
21.02.2018 08:00:00 -10,5 -11,8 3 2 7 4 ESE 11 0,1
21.02.2018 07:00:00 -10,2 -11,5 4 2 8 5 ESE 10 0,1
21.02.2018 06:00:00 -10,4 -11,6 3 2 7 4 SE 12 0,1
21.02.2018 05:00:00 -10,4 -11,6 0 0 4 2 N 5 0,0
21.02.2018 04:00:00 -10,5 -11,7 2 1 7 4 SE 6 0,0
21.02.2018 03:00:00 -10,7 -11,9 0 0 5 3 N 12 0,0
21.02.2018 02:00:00 -10,8 -12,0 0 0 6 4 N 6 0,0
21.02.2018 01:00:00 -10,4 -11,6 0 0 6 3 N 2,0 0,1
21.02.2018 00:00:00 -10,7 -11,9 0 0 4 2 N 2,7 0,0
20.02.2018 23:00:00 -10,8 -12,0 0 0 3 2 N 11 0,0
20.02.2018 22:00:00 -10,7 -11,9 0 0 5 3 N 7 0,1
20.02.2018 21:00:00 -10,6 -11,6 0 0 5 3 N 9 0,0
20.02.2018 20:00:00 -11,4 -12,6 4 2 5 3 WNW 24 0,0
20.02.2018 19:00:00 -11,0 -12,0 0 0 6 4 N 4,6 0,0
20.02.2018 18:00:00 -9,1 -10,6 0 0 8 4 N 1,9 0,0
20.02.2018 17:00:00 -8,8 -10,6 3 2 8 5 ENE 6 0,1
20.02.2018 16:00:00 -8,1 -10,3 4 2 11 6 SW 2,6 0,0
20.02.2018 15:00:00 -8,1 -10,9 5 3 12 6 SSW 2,8 0,0
20.02.2018 14:00:00 -7,6 -11,3 5 3 11 6 SW 4,6 0,0
20.02.2018 13:00:00 -8,1 -11,3 4 2 13 7 S 8 0,0
20.02.2018 12:00:00 -8,6 -11,6 2 1 9 5 SSW 6 0,0
20.02.2018 11:00:00 -9,3 -11,8 5 3 12 6 S 3,7 0,0
20.02.2018 10:00:00 -9,7 -11,9 3 2 13 7 SSW 2,3 0,1
20.02.2018 09:00:00 -10,0 -12,0 3 1 10 5 W 2,6 0,0
20.02.2018 08:00:00 -10,1 -12,1 4 2 9 5 W 6 0,0
20.02.2018 07:00:00 -10,1 -12,0 0 0 8 4 N 7 0,0
20.02.2018 06:00:00 -9,9 -11,9 0 0 12 7 N 6 0,1
20.02.2018 05:00:00 -9,8 -11,7 0 0 4 2 N 11 0,0
20.02.2018 04:00:00 -9,7 -11,5 3 2 7 4 S 19 0,0
20.02.2018 03:00:00 -9,8 -11,3 2 1 6 4 E 15 0,0
20.02.2018 02:00:00 -9,7 -11,2 0 0 6 3 N 15 0,0
20.02.2018 01:00:00 -9,8 -11,1 4 2 5 3 ENE 10 0,0
20.02.2018 00:00:00 -10,3 -11,5 3 2 4 2 E 7 0,0
19.02.2018 23:00:00 -10,4 -11,6 0 0 5 3 N 2,8 0,0
19.02.2018 22:00:00 -10,3 -11,5 0 0 5 3 N 6 0,0
19.02.2018 21:00:00 -10,3 -11,2 0 0 4 2 N 8 0,1
19.02.2018 20:00:00 -9,8 -10,9 0 0 7 4 N 8 0,0
19.02.2018 19:00:00 -9,1 -10,4 5 3 7 4 E 7 0,0
19.02.2018 18:00:00 -8,3 -9,6 5 3 10 5 E 4,6 0,0
19.02.2018 17:00:00 -8,1 -9,7 9 5 16 8 E 5 0,0
19.02.2018 16:00:00 -7,6 -9,8 11 6 18 10 E 11 0,0
19.02.2018 15:00:00 -7,3 -9,1 11 6 19 10 E 4,7 0,0
19.02.2018 14:00:00 -6,9 -9,1 9 5 20 11 E 17 0,0
19.02.2018 13:00:00 -6,8 -8,6 10 6 16 9 E 4,2 0,1
19.02.2018 12:00:00 -6,8 -8,2 7 4 16 9 ESE 5 0,0
19.02.2018 11:00:00 -6,8 -8,2 9 5 19 11 ESE 7 0,1
19.02.2018 10:00:00 -7,0 -8,1 5 3 10 5 E 7 0,0
19.02.2018 09:00:00 -7,2 -8,1 5 3 9 5 E 3,0 0,0
19.02.2018 08:00:00 -7,5 -8,3 5 3 12 6 E 8 0,0
19.02.2018 07:00:00 -7,5 -8,3 5 3 11 6 E 5 0,2
19.02.2018 06:00:00 -7,5 -8,3 7 4 12 6 E 5 0,1
19.02.2018 05:00:00 -7,5 -8,3 4 2 7 4 E 4,2 0,1
19.02.2018 04:00:00 -7,6 -8,4 3 2 6 3 ESE 2,0 0,3
19.02.2018 03:00:00 -8,4 -9,3 0 0 2 1 N 2,4 0,2
19.02.2018 02:00:00 -8,8 -9,7 0 0 3 2 N 17 0,1
19.02.2018 01:00:00 -9,0 -9,9 0 0 0 0 N 9 0,1
19.02.2018 00:00:00 -9,1 -10,0 0 0 0 0 N 4,2 0,4
18.02.2018 23:00:00 -9,2 -10,1 0 0 0 0 N 5 0,2
18.02.2018 22:00:00 -9,2 -10,3 0 0 1 1 N 21 0,0
18.02.2018 21:00:00 -9,3 -10,2 0 0 0 0 N 23 0,0
18.02.2018 20:00:00 -9,4 -10,5 0 0 3 1 N 17 0,0
18.02.2018 19:00:00 -9,1 -10,0 0 0 0 0 N 16 0,0
18.02.2018 18:00:00 -9,1 -10,0 0 0 0 0 N 7 0,0
18.02.2018 17:00:00 -9,0 -9,9 0 0 3 2 N 7 0,0
18.02.2018 16:00:00 -8,9 -10,0 0 0 0 0 N 16 0,0
18.02.2018 15:00:00 -9,0 -9,9 0 0 0 0 N 30 0,0
18.02.2018 14:00:00 -9,3 -10,4 0 0 0 0 N 36 0,0
18.02.2018 13:00:00 -10,3 -11,5 0 0 0 0 N 50 0,0
18.02.2018 12:00:00 -11,4 -12,6 0 0 0 0 N 38 0,0
18.02.2018 11:00:00 -12,4 -13,8 0 0 1 1 N 12 0,0
18.02.2018 10:00:00 -15,0 -16,4 0 0 0 0 N 2,6 0,0
18.02.2018 09:00:00 -16,7 -18,5 0 0 3 2 N 0,5 0,0
18.02.2018 08:00:00 -16,7 -18,4 2 1 4 2 WNW 1,3 0,0
18.02.2018 07:00:00 -17,3 -19,1 0 0 3 2 N - 0,0
18.02.2018 06:00:00 -18,6 -20,5 2 1 5 3 W 0,5 0,2
18.02.2018 05:00:00 -19,4 -21,3 0 0 4 2 N 47 0,0
18.02.2018 04:00:00 -22,1 -24,3 4 2 5 3 W 50 0,0
18.02.2018 03:00:00 -20,1 -21,8 3 2 7 4 WSW 50 0,0
18.02.2018 02:00:00 -19,9 -21,8 2 1 8 4 W 47 0,0
18.02.2018 01:00:00 -20,2 -22,2 5 3 7 4 W 50 0,0
18.02.2018 00:00:00 -18,5 -20,4 0 0 7 4 N 50 0,0
17.02.2018 23:00:00 -18,0 -19,8 4 2 8 4 W 50 0,0
17.02.2018 22:00:00 -17,0 -18,8 5 3 8 4 WSW 50 0,0
17.02.2018 21:00:00 -16,0 -17,7 3 2 9 5 WSW 50 0,0
17.02.2018 20:00:00 -14,9 -16,4 5 3 9 5 WSW 50 0,0
17.02.2018 19:00:00 -10,6 -11,1 5 3 8 4 WNW 30 0,0
17.02.2018 18:00:00 -9,3 -10,1 3 2 6 4 W 35 0,0
17.02.2018 17:00:00 -5,0 -7,3 4 2 6 4 W 50 0,0
17.02.2018 16:00:00 -3,7 -7,3 5 3 12 6 WSW 50 0,0
17.02.2018 15:00:00 -2,6 -6,2 6 4 14 8 W 50 0,0
17.02.2018 14:00:00 -1,1 -5,1 8 4 13 7 WSW 44 0,0
17.02.2018 13:00:00 -1,4 -5,1 6 4 15 8 WSW 39 0,0
17.02.2018 12:00:00 -2,5 -5,8 7 4 11 6 WSW 38 0,0
17.02.2018 11:00:00 -3,5 -6,0 4 2 7 4 W 32 0,0
17.02.2018 10:00:00 -5,1 -6,3 0 0 0 0 N 9 0,0
17.02.2018 09:00:00 -6,7 -7,5 0 0 5 3 N 4,5 0,2
17.02.2018 08:00:00 -6,7 -7,6 0 0 6 3 N 3,1 0,0
17.02.2018 07:00:00 -6,5 -7,3 0 0 5 3 N 22 0,0

tt = Température de l'air
td = dewpoint
ff = Vitesse du vent
fx = gusts
dd = Direction du vent
vv = visibility
rr = Quantités de précipitations

stations d'obs. à proximité